createdAt,value
2022-12-06T00:00:18.554Z,95.93
2022-12-06T00:02:45.090Z,96.29
2022-12-06T00:05:11.553Z,96.72
2022-12-06T00:07:38.028Z,96.47
2022-12-06T00:10:05.356Z,96.65
2022-12-06T00:12:31.805Z,96.64
2022-12-06T00:14:58.217Z,96.15
2022-12-06T00:17:24.753Z,96.38
2022-12-06T00:19:53.672Z,96.45
2022-12-06T00:22:24.941Z,96.61
2022-12-06T00:24:55.109Z,96.29
2022-12-06T00:27:21.582Z,96.73
2022-12-06T00:29:48.355Z,96.00
2022-12-06T00:32:19.271Z,96.33
2022-12-06T00:34:46.068Z,96.64
2022-12-06T00:37:12.518Z,96.52
2022-12-06T00:39:38.978Z,96.19
2022-12-06T00:42:07.873Z,96.25
2022-12-06T00:44:34.377Z,96.17
2022-12-06T00:47:00.810Z,95.71
2022-12-06T00:49:27.292Z,96.34
2022-12-06T00:51:53.783Z,96.22
2022-12-06T00:54:20.494Z,95.74
2022-12-06T00:56:46.861Z,96.03
2022-12-06T00:59:13.348Z,96.01
2022-12-06T01:01:42.434Z,95.96
2022-12-06T01:04:08.778Z,96.14
2022-12-06T01:06:37.017Z,96.02
2022-12-06T01:09:13.654Z,96.21
2022-12-06T01:11:40.089Z,96.42
2022-12-06T01:14:07.248Z,96.09
2022-12-06T01:16:34.129Z,96.25
2022-12-06T01:19:02.928Z,96.33
2022-12-06T01:21:29.845Z,96.82
2022-12-06T01:23:56.510Z,96.54
2022-12-06T01:26:32.036Z,96.37
2022-12-06T01:28:59.768Z,96.98
2022-12-06T01:31:29.656Z,96.29
2022-12-06T01:34:00.908Z,96.51
2022-12-06T01:36:27.328Z,96.31
2022-12-06T01:38:57.443Z,96.58
2022-12-06T01:41:26.271Z,97.26
2022-12-06T01:43:53.174Z,96.66
2022-12-06T01:46:40.295Z,96.74
2022-12-06T01:49:09.235Z,96.67
2022-12-06T01:51:36.664Z,96.73
2022-12-06T01:54:08.281Z,97.21
2022-12-06T01:56:35.244Z,97.21
2022-12-06T01:59:02.881Z,96.94
2022-12-06T02:01:30.284Z,97.16
2022-12-06T02:04:00.516Z,97.14
2022-12-06T02:06:30.063Z,97.04
2022-12-06T02:09:00.934Z,96.72
2022-12-06T02:11:33.540Z,97.13
2022-12-06T02:14:05.530Z,97.07
2022-12-06T02:16:57.239Z,96.68
2022-12-06T02:19:51.366Z,96.93
2022-12-06T02:22:29.935Z,96.96
2022-12-06T02:25:24.638Z,96.51
2022-12-06T02:28:23.839Z,96.90
2022-12-06T02:31:14.925Z,97.41
2022-12-06T02:33:50.694Z,97.34
2022-12-06T02:36:30.845Z,97.11
2022-12-06T02:39:03.220Z,97.39
2022-12-06T02:41:44.940Z,97.43
2022-12-06T02:44:34.204Z,97.04
2022-12-06T02:47:03.879Z,96.93
2022-12-06T02:49:33.591Z,97.13
2022-12-06T02:52:00.994Z,97.16
2022-12-06T02:54:29.565Z,97.68
2022-12-06T02:56:55.936Z,97.62
2022-12-06T02:59:24.751Z,97.33
2022-12-06T03:01:58.237Z,97.59
2022-12-06T03:04:43.958Z,97.27
2022-12-06T03:07:21.480Z,97.23
2022-12-06T03:10:19.233Z,97.70
2022-12-06T03:13:08.647Z,97.34
2022-12-06T03:16:00.234Z,97.63
2022-12-06T03:18:43.513Z,97.42
2022-12-06T03:21:19.809Z,97.30
2022-12-06T03:23:49.845Z,97.33
2022-12-06T03:26:21.223Z,97.10
2022-12-06T03:28:49.864Z,97.42
2022-12-06T03:31:16.496Z,97.15
2022-12-06T03:33:48.553Z,97.16
2022-12-06T03:36:16.318Z,97.43
2022-12-06T03:38:52.240Z,97.32
2022-12-06T03:41:22.435Z,96.89
2022-12-06T03:43:49.180Z,96.95
2022-12-06T03:46:24.585Z,97.02
2022-12-06T03:48:58.149Z,97.50
2022-12-06T03:51:28.391Z,96.56
2022-12-06T03:53:59.168Z,96.97
2022-12-06T03:56:26.278Z,96.71
2022-12-06T03:58:52.700Z,96.72
2022-12-06T04:01:19.131Z,97.32
2022-12-06T04:03:45.758Z,97.11
2022-12-06T04:06:12.692Z,97.51
2022-12-06T04:08:39.120Z,96.99
2022-12-06T04:11:08.629Z,97.23
2022-12-06T04:13:34.978Z,96.78
2022-12-06T04:16:02.080Z,96.74
2022-12-06T04:18:29.814Z,96.99
2022-12-06T04:21:01.983Z,97.14
2022-12-06T04:23:29.207Z,97.25
2022-12-06T04:25:55.864Z,97.30
2022-12-06T04:28:22.916Z,97.43
2022-12-06T04:30:49.433Z,97.69
2022-12-06T04:33:18.242Z,97.29
2022-12-06T04:35:44.567Z,97.05
2022-12-06T04:38:10.876Z,97.25
2022-12-06T04:40:37.200Z,97.33
2022-12-06T04:43:03.701Z,96.78
2022-12-06T04:45:30.132Z,97.42
2022-12-06T04:47:56.497Z,96.94
2022-12-06T04:50:22.866Z,96.89
2022-12-06T04:52:53.437Z,97.32
2022-12-06T04:55:19.886Z,97.20
2022-12-06T04:57:46.217Z,97.02
2022-12-06T05:00:13.066Z,97.39
2022-12-06T05:02:39.421Z,97.18
2022-12-06T05:05:06.268Z,96.96
2022-12-06T05:07:32.692Z,97.13
2022-12-06T05:09:59.375Z,97.39
2022-12-06T05:12:26.007Z,97.18
2022-12-06T05:14:52.759Z,96.93
2022-12-06T05:17:19.153Z,96.95
2022-12-06T05:19:45.521Z,96.93
2022-12-06T05:22:12.083Z,96.99
2022-12-06T05:24:38.437Z,97.03
2022-12-06T05:27:04.984Z,96.82
2022-12-06T05:29:31.394Z,96.64
2022-12-06T05:31:57.741Z,97.15
2022-12-06T05:34:24.133Z,96.60
2022-12-06T05:36:50.487Z,97.24
2022-12-06T05:39:16.881Z,96.81
2022-12-06T05:41:43.435Z,97.15
2022-12-06T05:44:12.832Z,97.36
2022-12-06T05:46:39.568Z,97.24
2022-12-06T05:49:07.128Z,97.17
2022-12-06T05:51:38.221Z,96.67
2022-12-06T05:54:04.554Z,96.83
2022-12-06T05:56:30.847Z,96.24
2022-12-06T05:58:57.811Z,96.97
2022-12-06T06:01:24.161Z,96.63
2022-12-06T06:03:50.594Z,96.58
2022-12-06T06:06:17.189Z,96.79
2022-12-06T06:08:43.595Z,96.24
2022-12-06T06:11:10.169Z,96.31
2022-12-06T06:13:36.610Z,96.83
2022-12-06T06:16:03.099Z,96.51
2022-12-06T06:18:35.538Z,96.21
2022-12-06T06:21:02.837Z,96.73
2022-12-06T06:23:29.864Z,96.51
2022-12-06T06:25:56.645Z,96.56
2022-12-06T06:28:23.517Z,96.52
2022-12-06T06:30:50.346Z,96.90
2022-12-06T06:33:16.807Z,96.21
2022-12-06T06:35:43.480Z,96.23
2022-12-06T06:38:09.990Z,96.91
2022-12-06T06:40:38.097Z,96.51
2022-12-06T06:43:04.484Z,96.50
2022-12-06T06:45:30.959Z,96.48
2022-12-06T06:47:57.948Z,96.86
2022-12-06T06:50:24.845Z,96.68
2022-12-06T06:52:52.783Z,96.67
2022-12-06T06:55:19.172Z,96.90
2022-12-06T06:57:45.587Z,96.56
2022-12-06T07:00:12.867Z,96.55
2022-12-06T07:02:40.827Z,97.13
2022-12-06T07:05:07.678Z,97.30
2022-12-06T07:07:34.177Z,96.94
2022-12-06T07:10:01.118Z,96.59
2022-12-06T07:12:27.635Z,96.26
2022-12-06T07:14:54.079Z,96.42
2022-12-06T07:17:22.052Z,96.69
2022-12-06T07:19:48.473Z,96.34
2022-12-06T07:22:14.863Z,95.51
2022-12-06T07:24:43.582Z,95.98
2022-12-06T07:27:10.852Z,95.81
2022-12-06T07:29:37.244Z,95.71
2022-12-06T07:32:03.801Z,96.36
2022-12-06T07:34:30.753Z,96.31
2022-12-06T07:36:57.071Z,95.16
2022-12-06T07:39:23.532Z,96.88
2022-12-06T07:41:49.922Z,95.89
2022-12-06T07:44:17.253Z,96.82
2022-12-06T07:46:44.201Z,96.04
2022-12-06T07:49:10.658Z,96.21
2022-12-06T07:51:37.644Z,96.50
2022-12-06T07:54:04.168Z,95.34
2022-12-06T07:56:30.503Z,95.62
2022-12-06T07:58:57.965Z,96.40
2022-12-06T08:01:24.554Z,95.55
2022-12-06T08:03:50.990Z,95.19
2022-12-06T08:06:17.667Z,95.31
2022-12-06T08:08:44.443Z,94.93
2022-12-06T08:11:10.907Z,94.86
2022-12-06T08:13:37.953Z,93.42
2022-12-06T08:16:06.142Z,93.09
2022-12-06T08:18:32.797Z,92.35
2022-12-06T08:20:59.314Z,92.69
2022-12-06T08:23:33.686Z,91.82
2022-12-06T08:26:21.083Z,89.87
2022-12-06T08:28:48.281Z,85.61
2022-12-06T08:31:21.268Z,80.99
2022-12-06T08:33:47.920Z,77.68
2022-12-06T08:36:20.886Z,72.60
2022-12-06T08:38:47.980Z,69.64
2022-12-06T08:41:14.565Z,67.94
2022-12-06T08:43:40.914Z,64.64
2022-12-06T08:46:07.577Z,61.68
2022-12-06T08:48:37.229Z,60.20
2022-12-06T08:51:06.238Z,57.73
2022-12-06T08:53:32.817Z,53.90
2022-12-06T08:56:02.888Z,54.53
2022-12-06T08:58:29.907Z,51.12
2022-12-06T09:00:56.282Z,51.31
2022-12-06T09:03:22.599Z,49.48
2022-12-06T09:05:48.938Z,48.44
2022-12-06T09:08:15.416Z,47.31
2022-12-06T09:10:43.397Z,46.55
2022-12-06T09:13:10.066Z,47.26
2022-12-06T09:15:38.274Z,47.20
2022-12-06T09:18:04.740Z,48.40
2022-12-06T09:20:31.047Z,47.57
2022-12-06T09:22:57.795Z,47.56
2022-12-06T09:25:24.304Z,46.38
2022-12-06T09:27:53.765Z,47.08
2022-12-06T09:30:20.227Z,45.25
2022-12-06T09:32:46.851Z,44.30
2022-12-06T09:35:15.417Z,44.07
2022-12-06T09:37:43.626Z,42.06
2022-12-06T09:40:18.387Z,41.76
2022-12-06T09:42:50.801Z,40.31
2022-12-06T09:45:44.585Z,40.89
2022-12-06T09:48:29.679Z,39.20
2022-12-06T09:51:07.111Z,38.46
2022-12-06T09:53:36.728Z,38.70
2022-12-06T09:56:24.098Z,36.68
2022-12-06T09:59:14.916Z,36.97
2022-12-06T10:02:01.897Z,37.00
2022-12-06T10:05:11.077Z,43.35
2022-12-06T10:08:08.865Z,49.33
2022-12-06T10:11:08.747Z,54.34
2022-12-06T10:13:54.184Z,57.42
2022-12-06T10:16:31.086Z,60.81
2022-12-06T10:19:06.747Z,60.06
2022-12-06T10:21:50.249Z,58.88
2022-12-06T10:24:31.434Z,55.62
2022-12-06T10:27:08.507Z,56.88
2022-12-06T10:29:52.509Z,55.96
2022-12-06T10:32:38.374Z,58.64
2022-12-06T10:35:24.435Z,61.15
2022-12-06T10:38:10.333Z,64.26
2022-12-06T10:40:57.563Z,64.84
2022-12-06T10:43:32.362Z,65.06
2022-12-06T10:46:16.805Z,66.18
2022-12-06T10:49:19.271Z,65.04
2022-12-06T10:51:54.039Z,62.79
2022-12-06T10:54:29.953Z,62.63
2022-12-06T10:57:02.054Z,62.18
2022-12-06T10:59:39.816Z,64.01
2022-12-06T11:02:27.515Z,63.06
2022-12-06T11:05:01.848Z,62.82
2022-12-06T11:07:38.960Z,64.57
2022-12-06T11:10:18.132Z,65.50
2022-12-06T11:12:44.980Z,68.52
2022-12-06T11:15:39.839Z,68.53
2022-12-06T11:18:14.152Z,69.07
2022-12-06T11:21:18.309Z,71.63
2022-12-06T11:23:48.024Z,71.94
2022-12-06T11:26:49.005Z,72.63
2022-12-06T11:29:16.508Z,72.90
2022-12-06T11:31:49.560Z,73.78
2022-12-06T11:34:23.716Z,75.06
2022-12-06T11:36:56.783Z,72.22
2022-12-06T11:39:25.655Z,74.35
2022-12-06T11:41:55.430Z,75.57
2022-12-06T11:44:48.033Z,74.27
2022-12-06T11:47:17.566Z,73.74
2022-12-06T11:49:45.463Z,72.69
2022-12-06T11:52:21.703Z,74.09
2022-12-06T11:54:57.277Z,73.55
2022-12-06T11:57:28.173Z,75.97
2022-12-06T12:00:17.294Z,76.08
2022-12-06T12:02:46.297Z,75.76
2022-12-06T12:05:20.447Z,76.92
2022-12-06T12:08:03.212Z,75.82
2022-12-06T12:10:32.437Z,74.82
2022-12-06T12:13:12.355Z,76.43
2022-12-06T12:15:47.802Z,76.37
2022-12-06T12:18:23.728Z,76.81
2022-12-06T12:20:50.514Z,77.12
2022-12-06T12:23:22.422Z,77.47
2022-12-06T12:26:04.660Z,77.20
2022-12-06T12:28:33.762Z,76.94
2022-12-06T12:31:09.899Z,76.22
2022-12-06T12:33:36.518Z,75.16
2022-12-06T12:36:02.824Z,74.62
2022-12-06T12:38:43.375Z,75.53
2022-12-06T12:41:30.996Z,74.84
2022-12-06T12:44:28.904Z,75.12
2022-12-06T12:46:55.321Z,75.37
2022-12-06T12:49:27.783Z,76.09
2022-12-06T12:51:54.848Z,76.70
2022-12-06T12:54:23.555Z,75.49
2022-12-06T12:56:50.717Z,76.58
2022-12-06T12:59:20.824Z,75.86
2022-12-06T13:02:04.781Z,75.50
2022-12-06T13:04:39.088Z,75.75
2022-12-06T13:07:23.492Z,72.63
2022-12-06T13:10:07.829Z,67.49
2022-12-06T13:12:42.580Z,57.96
2022-12-06T13:15:18.652Z,51.45
2022-12-06T13:17:57.937Z,47.38
2022-12-06T13:34:02.825Z,71.10
2022-12-06T14:35:55.303Z,82.34
2022-12-06T14:38:36.428Z,84.04
2022-12-06T14:41:04.950Z,84.88
2022-12-06T14:43:36.679Z,84.95
2022-12-06T14:46:06.971Z,83.94
2022-12-06T14:48:34.546Z,84.78
2022-12-06T14:51:05.934Z,85.20
2022-12-06T14:53:35.200Z,85.71
2022-12-06T14:56:38.516Z,86.56
2022-12-06T14:59:12.944Z,86.72
2022-12-06T15:04:38.577Z,88.37
2022-12-06T15:07:09.500Z,88.14
2022-12-06T15:09:45.123Z,88.86
2022-12-06T15:12:28.832Z,88.59
2022-12-06T15:41:53.628Z,90.91
2022-12-06T15:49:39.043Z,91.20
2022-12-06T16:16:29.608Z,91.94
2022-12-06T16:18:58.325Z,92.05
2022-12-06T16:21:32.484Z,92.07
2022-12-06T16:24:15.278Z,92.33
2022-12-06T16:26:42.922Z,92.48
2022-12-06T16:29:12.763Z,92.39
2022-12-06T16:31:39.550Z,93.09
2022-12-06T16:34:06.121Z,93.11
2022-12-06T16:36:33.438Z,93.02
2022-12-06T16:39:02.423Z,93.44
2022-12-06T16:41:41.808Z,93.24
2022-12-06T16:44:10.229Z,92.98
2022-12-06T16:46:38.185Z,92.82
2022-12-06T16:49:37.302Z,93.46
2022-12-06T16:51:54.125Z,94.09
2022-12-06T16:54:20.474Z,93.45
2022-12-06T16:56:47.078Z,93.70
2022-12-06T16:59:17.977Z,93.14
2022-12-06T17:01:54.529Z,93.18
2022-12-06T17:04:21.481Z,93.22
2022-12-06T17:06:48.114Z,93.17
2022-12-06T17:09:15.594Z,93.15
2022-12-06T17:11:42.762Z,93.62
2022-12-06T17:14:10.706Z,93.98
2022-12-06T17:16:38.474Z,93.73
2022-12-06T17:19:06.834Z,94.60
2022-12-06T17:21:34.046Z,94.66
2022-12-06T17:24:00.850Z,94.23
2022-12-06T17:26:28.541Z,94.21
2022-12-06T17:28:55.992Z,94.51
2022-12-06T17:31:23.255Z,94.12
2022-12-06T17:33:52.340Z,94.69
2022-12-06T17:36:25.019Z,94.19
2022-12-06T17:38:53.186Z,94.24
2022-12-06T17:41:23.545Z,94.08
2022-12-06T17:43:49.907Z,93.94
2022-12-06T17:46:16.476Z,94.26
2022-12-06T17:48:45.232Z,93.46
2022-12-06T17:51:11.683Z,93.63
2022-12-06T17:53:38.128Z,93.82
2022-12-06T17:56:32.096Z,94.19
2022-12-06T17:59:07.628Z,94.05
2022-12-06T18:02:06.048Z,94.17
2022-12-06T18:04:21.569Z,94.08
2022-12-06T18:06:47.944Z,94.09
2022-12-06T18:09:15.322Z,94.26
2022-12-06T18:11:42.301Z,94.11
2022-12-06T18:14:08.753Z,94.51
2022-12-06T18:16:42.251Z,94.28
2022-12-06T18:19:17.490Z,94.83
2022-12-06T18:21:44.466Z,95.41
2022-12-06T18:24:23.797Z,95.03
2022-12-06T18:26:53.652Z,95.20
2022-12-06T18:29:23.480Z,94.93
2022-12-06T18:31:51.594Z,95.37
2022-12-06T18:34:19.726Z,95.21
2022-12-06T18:36:47.470Z,95.03
2022-12-06T18:39:16.487Z,95.54
2022-12-06T18:41:46.782Z,94.59
2022-12-06T18:44:13.686Z,95.65
2022-12-06T18:46:41.288Z,95.30
2022-12-06T18:49:09.529Z,95.80
2022-12-06T18:51:36.737Z,95.66
2022-12-06T18:54:03.595Z,95.39
2022-12-06T18:56:30.017Z,95.41
2022-12-06T18:59:03.407Z,95.21
2022-12-06T19:01:32.802Z,95.45
2022-12-06T19:04:01.668Z,95.23
2022-12-06T19:06:31.313Z,95.14
2022-12-06T19:09:01.009Z,95.12
2022-12-06T19:11:28.347Z,94.95
2022-12-06T19:13:56.863Z,95.17
2022-12-06T19:16:28.721Z,94.89
2022-12-06T19:18:57.648Z,95.15
2022-12-06T19:21:25.890Z,95.22
2022-12-06T19:23:56.218Z,94.99
2022-12-06T19:26:24.290Z,95.91
2022-12-06T19:28:52.181Z,95.56
2022-12-06T19:31:19.635Z,95.89
2022-12-06T19:33:46.320Z,95.98
2022-12-06T19:36:24.924Z,95.81
2022-12-06T19:38:56.310Z,95.55
2022-12-06T19:41:22.913Z,95.12
2022-12-06T19:46:34.006Z,95.26
2022-12-06T19:49:14.043Z,95.40
2022-12-06T19:51:44.216Z,95.59
2022-12-06T19:54:13.957Z,95.88
2022-12-06T19:56:45.849Z,95.62
2022-12-06T19:59:13.026Z,95.53
2022-12-06T20:01:44.494Z,94.93
2022-12-06T20:04:16.585Z,95.50
2022-12-06T20:06:45.134Z,95.07
2022-12-06T20:09:12.337Z,95.10
2022-12-06T20:11:41.567Z,95.12
2022-12-06T20:14:14.948Z,94.66
2022-12-06T20:16:43.384Z,95.00
2022-12-06T20:19:19.292Z,95.39
2022-12-06T20:21:46.460Z,95.34
2022-12-06T20:59:13.489Z,96.29
2022-12-06T21:01:41.583Z,95.45
2022-12-06T21:04:15.099Z,95.38
2022-12-06T21:06:41.722Z,95.50
2022-12-06T21:09:09.870Z,95.86
2022-12-06T21:11:36.482Z,95.48
2022-12-06T21:14:03.409Z,95.62
2022-12-06T21:16:31.703Z,95.21
2022-12-06T21:19:02.230Z,95.79
2022-12-06T21:21:31.803Z,95.31
2022-12-06T21:24:01.383Z,95.03
2022-12-06T21:26:29.241Z,95.39
2022-12-06T21:28:58.284Z,95.24
2022-12-06T21:31:35.400Z,95.78
2022-12-06T21:34:04.874Z,94.90
2022-12-06T21:36:35.411Z,94.56
2022-12-06T21:39:01.860Z,95.04
2022-12-06T21:41:28.609Z,96.02
2022-12-06T21:43:55.351Z,95.15
2022-12-06T21:46:25.118Z,95.41
2022-12-06T21:49:00.278Z,95.17
2022-12-06T21:51:29.694Z,95.16
2022-12-06T21:53:56.411Z,95.10
2022-12-06T21:56:28.915Z,95.00
2022-12-06T21:58:56.147Z,95.01
2022-12-06T22:01:25.442Z,95.80
2022-12-06T22:03:56.572Z,95.40
2022-12-06T22:06:23.186Z,95.28
2022-12-06T22:08:58.676Z,95.51
2022-12-06T22:11:25.505Z,94.65
2022-12-06T22:13:54.982Z,95.22
2022-12-06T22:16:21.624Z,95.54
2022-12-06T22:18:49.396Z,94.59
2022-12-06T22:21:21.045Z,94.00
2022-12-06T22:23:48.124Z,94.22
2022-12-06T22:26:20.845Z,94.80
2022-12-06T22:28:50.853Z,94.58
2022-12-06T22:31:26.618Z,94.83
2022-12-06T22:33:54.160Z,94.96
2022-12-06T22:36:22.000Z,94.88
2022-12-06T22:38:51.795Z,94.65
2022-12-06T22:41:19.385Z,94.62
2022-12-06T22:43:49.466Z,94.87
2022-12-06T22:46:16.451Z,94.35
2022-12-06T22:48:49.463Z,94.00
2022-12-06T22:51:37.501Z,93.38
2022-12-06T22:54:07.248Z,93.90
2022-12-06T22:56:33.953Z,95.33
2022-12-06T22:59:01.990Z,95.38
2022-12-06T23:01:32.066Z,95.41
2022-12-06T23:04:00.845Z,95.90
2022-12-06T23:06:28.055Z,96.80
2022-12-06T23:08:55.494Z,96.10
2022-12-06T23:11:27.800Z,94.59
2022-12-06T23:13:56.617Z,94.79
2022-12-06T23:16:26.272Z,95.58
2022-12-06T23:18:53.627Z,94.44
2022-12-06T23:21:51.461Z,95.08
2022-12-06T23:24:19.201Z,95.22
2022-12-06T23:26:50.698Z,95.65
2022-12-06T23:29:19.812Z,95.54
2022-12-06T23:31:46.667Z,95.54
2022-12-06T23:34:20.689Z,94.96
2022-12-06T23:36:47.762Z,95.82
2022-12-06T23:39:14.863Z,95.46
2022-12-06T23:41:41.854Z,95.04
2022-12-06T23:44:10.703Z,93.74
2022-12-06T23:46:39.156Z,95.72
2022-12-06T23:49:07.014Z,95.32
2022-12-06T23:51:38.848Z,95.31
2022-12-06T23:54:11.525Z,95.66
2022-12-06T23:56:40.374Z,95.73
2022-12-06T23:59:10.534Z,95.29
